Time;durP1;ratioP1;P1;durP2;ratioP2;P2;SDS_P1;SDS_P2;PMS_P1;PMS_P2;Temp;Humidity;BMP_temperature;BMP_pressure;BME280_temperature;BME280_humidity;BME280_pressure;Samples;Min_cycle;Max_cycle;Signal;HPM_P1;HPM_P2
2022/11/07 00:01:16;;;;;;;1.57;1.47;;;13.20;90.80;;;;;;953545;147;27335;-78
2022/11/07 00:03:43;;;;;;;2.70;2.17;;;13.20;90.70;;;;;;949136;147;27427;-78
2022/11/07 00:06:09;;;;;;;1.60;1.50;;;13.20;90.70;;;;;;951043;147;27261;-78
2022/11/07 00:08:36;;;;;;;1.60;1.50;;;13.20;90.60;;;;;;953525;147;27410;-78
2022/11/07 00:11:03;;;;;;;2.50;1.60;;;13.30;90.70;;;;;;951300;147;27397;-78
2022/11/07 00:13:29;;;;;;;1.90;1.60;;;13.30;90.70;;;;;;951724;147;27404;-78
2022/11/07 00:15:58;;;;;;;1.83;1.60;;;13.30;90.70;;;;;;952734;147;27424;-78
2022/11/07 00:18:25;;;;;;;1.53;1.43;;;13.30;90.70;;;;;;951608;147;27397;-77
2022/11/07 00:20:52;;;;;;;2.43;1.57;;;13.30;90.80;;;;;;952967;147;27398;-77
2022/11/07 00:23:18;;;;;;;1.90;1.53;;;13.30;90.80;;;;;;952114;147;27367;-77
2022/11/07 00:25:45;;;;;;;1.90;1.70;;;13.30;90.90;;;;;;951355;147;27458;-77
2022/11/07 00:28:11;;;;;;;3.07;2.00;;;13.30;90.90;;;;;;943707;147;27480;-77
2022/11/07 00:30:38;;;;;;;2.00;1.57;;;13.30;90.90;;;;;;923157;150;27432;-78
2022/11/07 00:33:05;;;;;;;1.53;1.43;;;13.40;91.00;;;;;;939860;147;27302;-77
2022/11/07 00:35:31;;;;;;;1.70;1.60;;;13.40;91.00;;;;;;942663;147;27312;-77
2022/11/07 00:37:58;;;;;;;1.57;1.47;;;13.40;91.10;;;;;;927032;150;27373;-78
2022/11/07 00:40:24;;;;;;;2.17;1.77;;;13.40;91.10;;;;;;938643;147;27455;-78
2022/11/07 00:42:51;;;;;;;1.63;1.53;;;13.40;91.10;;;;;;943186;148;27384;-78
2022/11/07 00:45:18;;;;;;;1.60;1.50;;;13.40;91.10;;;;;;924390;150;27444;-78
2022/11/07 00:47:44;;;;;;;1.98;1.52;;;13.50;91.30;;;;;;932189;150;27339;-79
2022/11/07 00:50:11;;;;;;;3.10;1.98;;;13.50;91.20;;;;;;939427;150;28142;-78
2022/11/07 00:52:37;;;;;;;1.60;1.40;;;13.50;91.20;;;;;;942300;148;27434;-78
2022/11/07 00:55:04;;;;;;;1.17;1.17;;;13.50;91.20;;;;;;933473;149;27379;-78
2022/11/07 00:57:31;;;;;;;2.12;1.82;;;13.50;91.20;;;;;;933673;149;27295;-78
2022/11/07 00:59:57;;;;;;;1.50;1.40;;;13.50;91.20;;;;;;934969;149;27309;-79
2022/11/07 01:02:24;;;;;;;1.90;1.60;;;13.50;91.20;;;;;;932522;149;27346;-79
2022/11/07 01:07:35;;;;;;;2.07;1.60;;;13.60;91.30;;;;;;926694;151;27506;-79
2022/11/07 01:10:02;;;;;;;2.20;1.70;;;13.60;91.30;;;;;;941460;147;27285;-78
2022/11/07 01:12:28;;;;;;;2.60;1.80;;;13.60;91.40;;;;;;938361;149;27419;-78
2022/11/07 01:14:55;;;;;;;3.20;1.90;;;13.60;91.50;;;;;;940060;150;27413;-78
2022/11/07 01:17:21;;;;;;;3.37;1.90;;;13.60;91.60;;;;;;924026;150;27401;-78
2022/11/07 01:19:48;;;;;;;2.50;1.90;;;13.60;91.70;;;;;;942127;147;27537;-78
2022/11/07 01:22:14;;;;;;;2.10;1.90;;;13.60;91.70;;;;;;932991;150;27318;-78
2022/11/07 01:24:41;;;;;;;3.47;1.77;;;13.60;91.80;;;;;;932583;149;27344;-78
2022/11/07 01:27:07;;;;;;;3.03;1.87;;;13.70;91.90;;;;;;934505;149;27540;-78
2022/11/07 01:29:34;;;;;;;2.67;1.87;;;13.70;91.90;;;;;;951076;147;27400;-78
2022/11/07 01:32:01;;;;;;;2.87;2.10;;;13.70;91.90;;;;;;952201;147;27861;-78
2022/11/07 01:34:27;;;;;;;3.65;2.10;;;13.70;91.90;;;;;;951288;147;27400;-78
2022/11/07 01:36:54;;;;;;;2.20;2.00;;;13.70;91.90;;;;;;949880;147;27333;-78
2022/11/07 01:39:20;;;;;;;1.80;1.70;;;13.70;91.90;;;;;;950181;147;27455;-78
2022/11/07 01:41:47;;;;;;;2.03;1.80;;;13.70;91.90;;;;;;952084;147;27313;-78
2022/11/07 01:44:14;;;;;;;1.70;1.53;;;13.80;91.90;;;;;;950713;147;27437;-78
2022/11/07 01:46:40;;;;;;;3.73;1.80;;;13.80;91.90;;;;;;953630;147;27368;-78
2022/11/07 01:49:25;;;;;;;2.27;1.67;;;13.80;91.90;;;;;;951283;147;27328;-78
2022/11/07 01:51:55;;;;;;;1.90;1.70;;;13.80;92.00;;;;;;948801;147;27361;-79
2022/11/07 01:54:21;;;;;;;2.40;1.70;;;13.80;91.50;;;;;;950186;147;27417;-78
2022/11/07 01:56:48;;;;;;;3.40;2.43;;;13.80;91.90;;;;;;948247;147;27460;-78
2022/11/07 01:59:14;;;;;;;2.03;1.77;;;13.80;91.90;;;;;;952000;147;27367;-78
2022/11/07 02:01:41;;;;;;;2.50;1.90;;;13.80;92.00;;;;;;953036;147;28161;-78
2022/11/07 02:04:08;;;;;;;1.77;1.67;;;13.80;92.10;;;;;;950517;147;27410;-78
2022/11/07 02:06:43;;;;;;;2.08;1.90;;;13.80;92.20;;;;;;951025;147;27285;-78
2022/11/07 02:09:09;;;;;;;2.13;1.83;;;13.80;92.20;;;;;;939671;147;27401;-78
2022/11/07 02:11:36;;;;;;;1.95;1.82;;;13.80;92.30;;;;;;948518;147;27335;-78
2022/11/07 02:14:03;;;;;;;2.43;2.13;;;13.80;92.30;;;;;;958072;146;27411;-78
2022/11/07 02:16:31;;;;;;;2.70;1.80;;;13.80;92.40;;;;;;956247;146;27416;-78
2022/11/07 02:18:56;;;;;;;2.03;1.93;;;13.80;92.40;;;;;;958734;146;27388;-78
2022/11/07 02:21:34;;;;;;;2.83;1.73;;;13.80;92.50;;;;;;958899;146;27315;-78
2022/11/07 02:24:00;;;;;;;2.33;1.80;;;13.80;92.50;;;;;;955678;148;28206;-78
2022/11/07 02:26:27;;;;;;;2.43;2.23;;;13.90;92.50;;;;;;950296;147;27361;-77
2022/11/07 02:28:54;;;;;;;3.08;1.65;;;13.90;92.60;;;;;;945919;147;27406;-77
2022/11/07 02:31:20;;;;;;;2.70;1.97;;;13.90;92.60;;;;;;936867;149;27319;-77
2022/11/07 02:33:47;;;;;;;2.73;1.80;;;13.90;92.60;;;;;;925688;150;27349;-77
2022/11/07 02:36:13;;;;;;;2.53;2.00;;;13.90;92.60;;;;;;941912;147;27361;-77
2022/11/07 02:38:40;;;;;;;2.67;2.02;;;13.90;92.50;;;;;;934955;149;27320;-77
2022/11/07 02:41:09;;;;;;;1.83;1.53;;;13.90;92.50;;;;;;940869;151;27290;-77
2022/11/07 02:43:36;;;;;;;1.90;1.70;;;13.80;92.30;;;;;;940919;150;27297;-77
2022/11/07 02:46:03;;;;;;;2.67;2.00;;;13.80;92.10;;;;;;933469;149;27447;-77
2022/11/07 02:48:29;;;;;;;2.23;1.60;;;13.80;92.00;;;;;;932447;149;27452;-77
2022/11/07 02:50:56;;;;;;;2.75;1.80;;;13.70;91.90;;;;;;934911;149;27315;-77
2022/11/07 02:53:22;;;;;;;2.20;2.00;;;13.60;92.10;;;;;;934450;149;27373;-77
2022/11/07 02:55:49;;;;;;;2.53;1.80;;;13.60;92.30;;;;;;935859;149;27323;-77
2022/11/07 02:58:15;;;;;;;2.07;1.97;;;13.50;92.70;;;;;;932755;150;27377;-78
2022/11/07 03:00:42;;;;;;;2.23;1.97;;;13.50;93.00;;;;;;941196;148;27350;-78
2022/11/07 03:03:09;;;;;;;3.00;1.80;;;13.50;93.30;;;;;;924248;151;27442;-79
2022/11/07 03:05:35;;;;;;;2.23;1.77;;;13.50;93.60;;;;;;940057;148;27335;-78
2022/11/07 03:08:02;;;;;;;3.47;2.10;;;13.50;93.80;;;;;;934435;150;27363;-78
2022/11/07 03:10:28;;;;;;;1.97;1.77;;;13.50;94.00;;;;;;931620;150;27667;-78
2022/11/07 03:12:55;;;;;;;1.70;1.60;;;13.50;94.10;;;;;;931140;150;27956;-78
2022/11/07 03:15:22;;;;;;;2.67;1.70;;;13.50;94.20;;;;;;941519;147;27345;-78
2022/11/07 03:17:48;;;;;;;2.70;1.80;;;13.50;94.10;;;;;;921560;150;27392;-78
2022/11/07 03:20:15;;;;;;;2.77;1.97;;;13.50;93.90;;;;;;940236;149;27346;-78
2022/11/07 03:22:41;;;;;;;1.97;1.87;;;13.50;93.60;;;;;;940602;148;27362;-78
2022/11/07 03:25:08;;;;;;;1.70;1.60;;;13.50;93.30;;;;;;927387;150;27366;-78
2022/11/07 03:27:35;;;;;;;1.70;1.60;;;13.40;93.10;;;;;;945000;148;27440;-78
2022/11/07 03:30:01;;;;;;;1.80;1.70;;;13.30;93.00;;;;;;932449;149;27382;-78
2022/11/07 03:32:28;;;;;;;3.47;1.97;;;13.20;93.20;;;;;;942514;151;27610;-77
2022/11/07 03:34:54;;;;;;;3.20;2.00;;;13.10;93.50;;;;;;943820;148;27418;-78
2022/11/07 03:37:21;;;;;;;2.47;1.90;;;13.00;93.90;;;;;;958070;148;27351;-78
2022/11/07 03:39:47;;;;;;;2.53;2.33;;;12.90;94.40;;;;;;937549;151;27368;-79
2022/11/07 03:42:14;;;;;;;1.70;1.60;;;12.90;95.00;;;;;;947659;151;27312;-79
2022/11/07 03:44:41;;;;;;;2.08;1.98;;;12.90;95.40;;;;;;946933;150;27376;-79
2022/11/07 03:47:07;;;;;;;2.03;1.80;;;12.90;95.90;;;;;;947373;150;27364;-79
2022/11/07 03:49:38;;;;;;;2.67;2.10;;;12.90;96.20;;;;;;946366;149;27385;-78
2022/11/07 03:52:05;;;;;;;2.80;2.03;;;12.90;96.50;;;;;;945012;149;27313;-78
2022/11/07 03:54:31;;;;;;;2.13;1.90;;;12.90;96.70;;;;;;946945;149;27322;-78
2022/11/07 03:56:58;;;;;;;3.30;1.70;;;13.00;96.90;;;;;;948156;149;27371;-78
2022/11/07 03:59:25;;;;;;;3.47;2.40;;;13.00;96.90;;;;;;947092;148;27428;-78
2022/11/07 04:01:51;;;;;;;1.90;1.80;;;13.00;96.90;;;;;;942958;151;27436;-78
2022/11/07 04:04:18;;;;;;;2.23;1.63;;;13.00;96.70;;;;;;942657;148;27315;-78
2022/11/07 04:06:44;;;;;;;2.63;1.93;;;13.00;96.60;;;;;;948234;151;27328;-78
2022/11/07 04:09:11;;;;;;;2.70;1.80;;;13.00;96.70;;;;;;946793;149;27481;-78
2022/11/07 04:17:19;;;;;;;2.53;1.80;;;13.00;97.00;;;;;;946217;150;27996;-78
2022/11/07 04:19:46;;;;;;;4.53;2.10;;;13.00;97.00;;;;;;945214;150;27413;-78
2022/11/07 04:22:12;;;;;;;2.43;2.03;;;13.00;97.10;;;;;;945312;150;27293;-78
2022/11/07 04:24:39;;;;;;;3.33;2.00;;;13.00;97.30;;;;;;946711;150;27412;-77
2022/11/07 04:29:51;;;;;;;3.00;1.93;;;13.10;97.50;;;;;;947581;149;27416;-78
2022/11/07 04:32:17;;;;;;;2.47;1.83;;;13.10;97.50;;;;;;936767;152;28453;-78
2022/11/07 04:34:44;;;;;;;2.70;1.90;;;13.10;97.60;;;;;;937520;152;27324;-78
2022/11/07 04:37:10;;;;;;;2.43;1.73;;;13.10;97.70;;;;;;945031;151;27783;-78
2022/11/07 04:39:37;;;;;;;2.93;1.70;;;13.10;97.80;;;;;;953405;149;27502;-77
2022/11/07 04:42:04;;;;;;;2.70;2.00;;;13.10;97.80;;;;;;937620;152;27422;-77
2022/11/07 04:44:30;;;;;;;5.47;1.80;;;13.20;97.90;;;;;;937827;150;27369;-77
2022/11/07 04:46:57;;;;;;;2.83;1.73;;;13.20;98.00;;;;;;935511;152;27393;-79
2022/11/07 04:49:23;;;;;;;2.40;1.90;;;13.20;97.90;;;;;;936600;152;27337;-78
2022/11/07 04:51:50;;;;;;;3.47;1.90;;;13.20;97.70;;;;;;937457;152;27454;-78
2022/11/07 04:54:17;;;;;;;2.27;1.60;;;13.20;97.90;;;;;;952346;148;27282;-78
2022/11/07 04:56:43;;;;;;;2.40;1.90;;;13.30;97.90;;;;;;956086;149;27449;-78
2022/11/07 04:59:10;;;;;;;3.53;1.90;;;13.30;97.90;;;;;;955325;149;27264;-78
2022/11/07 05:01:36;;;;;;;2.17;1.90;;;13.30;97.80;;;;;;953768;149;27449;-78
2022/11/07 05:04:03;;;;;;;3.40;2.00;;;13.30;97.80;;;;;;952772;149;27284;-78
2022/11/07 05:06:30;;;;;;;2.60;1.87;;;13.30;97.90;;;;;;953701;146;27438;-78
2022/11/07 05:08:56;;;;;;;3.47;1.90;;;13.30;97.80;;;;;;938043;151;27393;-78
2022/11/07 05:11:23;;;;;;;3.10;1.87;;;13.30;97.90;;;;;;940673;148;28143;-78
2022/11/07 05:13:49;;;;;;;1.90;1.70;;;13.30;97.90;;;;;;940641;151;27308;-77
2022/11/07 05:16:16;;;;;;;2.43;1.63;;;13.30;97.90;;;;;;938417;150;27292;-78
2022/11/07 05:18:42;;;;;;;1.80;1.70;;;13.30;98.00;;;;;;939045;151;27396;-78
2022/11/07 05:21:09;;;;;;;2.87;1.77;;;13.40;98.00;;;;;;936926;151;27429;-77
2022/11/07 05:23:36;;;;;;;2.63;1.70;;;13.40;98.00;;;;;;938610;151;27384;-78
2022/11/07 05:26:02;;;;;;;1.80;1.57;;;13.40;98.00;;;;;;938600;148;27297;-78
2022/11/07 05:28:29;;;;;;;4.47;2.10;;;13.40;98.10;;;;;;951132;148;27146;-78
2022/11/07 05:30:59;;;;;;;3.20;1.63;;;13.40;98.10;;;;;;944986;148;27352;-78
2022/11/07 05:33:25;;;;;;;4.60;1.90;;;13.40;98.10;;;;;;938196;150;27455;-78
2022/11/07 05:35:51;;;;;;;3.50;1.60;;;13.40;98.10;;;;;;939895;150;27364;-78
2022/11/07 05:38:18;;;;;;;3.70;1.87;;;13.40;98.10;;;;;;938108;149;27334;-78
2022/11/07 05:40:44;;;;;;;3.93;1.73;;;13.40;98.10;;;;;;935538;151;27361;-78
2022/11/07 05:43:11;;;;;;;2.00;1.47;;;13.50;98.20;;;;;;953989;146;27324;-78
2022/11/07 05:45:38;;;;;;;2.27;1.40;;;13.50;98.10;;;;;;953333;146;27422;-78
2022/11/07 05:48:04;;;;;;;2.63;1.40;;;13.50;97.90;;;;;;954592;149;27709;-78
2022/11/07 05:50:31;;;;;;;3.57;1.50;;;13.50;97.80;;;;;;954092;146;28921;-78
2022/11/07 05:52:57;;;;;;;3.47;1.33;;;13.50;97.70;;;;;;935179;150;27393;-78
2022/11/07 05:55:24;;;;;;;3.20;1.50;;;13.50;97.50;;;;;;939120;149;27353;-78
2022/11/07 05:57:51;;;;;;;1.40;1.30;;;13.50;97.50;;;;;;945238;151;27282;-78
2022/11/07 06:00:17;;;;;;;1.97;1.53;;;13.50;97.50;;;;;;952229;149;27337;-78
2022/11/07 06:02:44;;;;;;;6.00;2.43;;;13.50;97.50;;;;;;944930;151;27437;-78
2022/11/07 06:05:10;;;;;;;4.07;1.83;;;13.50;97.50;;;;;;935762;152;27399;-78
2022/11/07 06:07:37;;;;;;;3.23;1.60;;;13.50;97.50;;;;;;937943;149;27325;-78
2022/11/07 06:10:04;;;;;;;3.90;1.67;;;13.50;97.40;;;;;;955362;149;27320;-78
2022/11/07 06:12:30;;;;;;;2.83;1.37;;;13.50;97.40;;;;;;945100;151;27424;-78
2022/11/07 06:14:57;;;;;;;2.30;1.37;;;13.50;97.50;;;;;;955390;146;27343;-78
2022/11/07 06:17:23;;;;;;;1.93;1.50;;;13.50;97.40;;;;;;953969;149;27321;-78
2022/11/07 06:19:50;;;;;;;3.60;1.60;;;13.50;97.40;;;;;;953025;149;27327;-78
2022/11/07 06:22:16;;;;;;;2.73;1.67;;;13.50;97.40;;;;;;955586;149;27267;-78
2022/11/07 06:24:43;;;;;;;3.13;1.70;;;13.40;97.60;;;;;;950906;147;27325;-78
2022/11/07 06:27:10;;;;;;;3.40;1.50;;;13.40;97.70;;;;;;949401;148;27326;-78
2022/11/07 06:29:36;;;;;;;1.70;1.50;;;13.40;97.70;;;;;;955790;149;27327;-78
2022/11/07 06:32:03;;;;;;;2.60;1.60;;;13.40;97.80;;;;;;952493;146;27368;-78
2022/11/07 06:34:29;;;;;;;2.07;1.40;;;13.50;98.00;;;;;;951967;146;27354;-78
2022/11/07 06:36:56;;;;;;;3.57;1.60;;;13.50;98.20;;;;;;953460;146;27387;-78
2022/11/07 06:39:23;;;;;;;2.23;1.40;;;13.50;98.30;;;;;;955515;146;27466;-77
2022/11/07 06:41:49;;;;;;;4.40;1.70;;;13.50;98.50;;;;;;952099;146;27444;-78
2022/11/07 06:44:16;;;;;;;4.37;1.60;;;13.50;98.70;;;;;;953170;147;27320;-78
2022/11/07 06:46:45;;;;;;;4.03;1.33;;;13.60;98.90;;;;;;953244;146;27385;-78
2022/11/07 06:49:09;;;;;;;3.07;1.60;;;13.60;98.80;;;;;;951610;146;27408;-78
2022/11/07 06:51:36;;;;;;;2.37;1.70;;;13.70;98.90;;;;;;952490;146;27378;-78
2022/11/07 06:54:03;;;;;;;2.93;1.33;;;13.80;98.80;;;;;;954935;146;27449;-78
2022/11/07 06:56:29;;;;;;;1.43;1.27;;;13.90;98.80;;;;;;953025;146;27279;-78
2022/11/07 06:58:55;;;;;;;3.42;1.40;;;13.90;98.70;;;;;;955784;146;27678;-78
2022/11/07 07:01:22;;;;;;;2.60;1.47;;;14.00;98.60;;;;;;952558;146;27344;-78
2022/11/07 07:03:48;;;;;;;2.85;1.30;;;14.10;98.40;;;;;;952836;146;27333;-78
2022/11/07 07:06:15;;;;;;;2.55;1.35;;;14.20;98.30;;;;;;952683;146;27433;-78
2022/11/07 07:08:42;;;;;;;4.00;1.70;;;14.30;98.20;;;;;;953723;146;27389;-78
2022/11/07 07:11:08;;;;;;;3.02;1.87;;;14.30;97.90;;;;;;952570;146;27342;-79
2022/11/07 07:13:35;;;;;;;2.72;1.77;;;14.40;97.80;;;;;;952372;146;27717;-79
2022/11/07 07:16:01;;;;;;;4.22;1.50;;;14.50;97.60;;;;;;952642;147;27397;-79
2022/11/07 07:18:28;;;;;;;3.72;1.70;;;14.60;97.40;;;;;;953807;146;27453;-79
2022/11/07 07:20:55;;;;;;;4.95;1.42;;;14.60;97.10;;;;;;954614;146;27347;-78
2022/11/07 07:23:21;;;;;;;4.67;1.45;;;14.70;96.90;;;;;;951691;146;27409;-78
2022/11/07 07:25:48;;;;;;;2.17;1.35;;;14.80;96.70;;;;;;953904;146;27352;-78
2022/11/07 07:28:14;;;;;;;3.75;1.40;;;14.80;96.40;;;;;;953964;146;27264;-78
2022/11/07 07:30:41;;;;;;;4.25;1.92;;;14.90;96.20;;;;;;952860;146;27433;-78
2022/11/07 07:33:08;;;;;;;1.80;1.15;;;14.90;95.90;;;;;;954921;146;27460;-78
2022/11/07 07:35:34;;;;;;;2.65;1.50;;;15.00;95.60;;;;;;954868;149;27330;-78
2022/11/07 07:38:01;;;;;;;4.05;1.67;;;15.00;95.40;;;;;;953601;148;27320;-78
2022/11/07 07:40:27;;;;;;;3.62;1.40;;;15.10;95.50;;;;;;954866;149;27327;-79
2022/11/07 07:42:54;;;;;;;2.60;1.37;;;15.10;95.20;;;;;;954237;149;27244;-78
2022/11/07 07:45:20;;;;;;;2.42;1.37;;;15.10;95.10;;;;;;956545;149;27850;-78
2022/11/07 07:47:47;;;;;;;3.65;2.77;;;15.20;95.00;;;;;;939165;151;27325;-78
2022/11/07 07:50:14;;;;;;;2.15;1.35;;;15.20;94.90;;;;;;954391;146;27345;-78
2022/11/07 07:52:40;;;;;;;1.90;1.65;;;15.30;94.90;;;;;;953558;149;27378;-78
2022/11/07 07:55:08;;;;;;;1.52;1.20;;;15.30;94.80;;;;;;940485;151;27371;-78
2022/11/07 07:57:33;;;;;;;1.80;1.25;;;15.40;94.60;;;;;;937458;151;27336;-79
2022/11/07 08:00:00;;;;;;;3.30;1.42;;;15.40;94.40;;;;;;937033;149;27815;-78
2022/11/07 08:02:27;;;;;;;2.92;1.15;;;15.40;94.20;;;;;;954170;149;27295;-78
2022/11/07 08:04:53;;;;;;;1.75;1.25;;;15.50;94.10;;;;;;951760;148;27345;-78
2022/11/07 08:07:20;;;;;;;1.45;1.27;;;15.60;93.90;;;;;;951061;149;27297;-78
2022/11/07 08:09:46;;;;;;;9.10;2.37;;;15.60;93.90;;;;;;937505;152;27490;-78
2022/11/07 08:12:13;;;;;;;2.75;1.17;;;15.60;93.80;;;;;;951938;149;27427;-78
2022/11/07 08:14:40;;;;;;;3.15;1.40;;;15.70;93.70;;;;;;939818;151;28564;-78
2022/11/07 08:17:06;;;;;;;2.08;1.45;;;15.80;93.50;;;;;;938138;149;27278;-78
2022/11/07 08:19:33;;;;;;;3.22;1.30;;;15.80;93.20;;;;;;937490;149;27430;-78
2022/11/07 08:21:59;;;;;;;3.58;1.22;;;15.90;93.10;;;;;;948505;148;27317;-78
2022/11/07 08:24:26;;;;;;;2.95;1.60;;;15.90;93.00;;;;;;937510;149;27371;-79
2022/11/07 08:26:52;;;;;;;3.92;1.30;;;15.90;92.60;;;;;;936889;151;27356;-79
2022/11/07 08:29:19;;;;;;;4.45;1.40;;;16.00;92.40;;;;;;953383;149;27422;-79
2022/11/07 08:31:49;;;;;;;4.03;1.30;;;16.00;92.20;;;;;;938125;151;27370;-78
2022/11/07 08:34:12;;;;;;;1.70;1.10;;;16.10;92.10;;;;;;948054;147;27398;-78
2022/11/07 08:36:39;;;;;;;2.85;1.40;;;16.10;91.90;;;;;;949596;147;27390;-78
2022/11/07 08:39:05;;;;;;;2.15;1.50;;;16.10;91.90;;;;;;950867;147;27319;-78
2022/11/07 08:41:32;;;;;;;2.37;1.30;;;16.20;91.70;;;;;;957808;146;27349;-78
2022/11/07 08:43:59;;;;;;;2.00;1.00;;;16.20;91.70;;;;;;937270;149;27325;-78
2022/11/07 08:46:25;;;;;;;2.37;1.37;;;16.30;91.60;;;;;;956049;146;27439;-79
2022/11/07 08:48:52;;;;;;;3.27;1.75;;;16.30;91.70;;;;;;943199;148;27336;-79
2022/11/07 08:51:18;;;;;;;2.75;1.40;;;16.40;91.70;;;;;;943607;148;27930;-79
2022/11/07 08:53:45;;;;;;;2.80;1.40;;;16.50;91.40;;;;;;954087;145;27299;-79
2022/11/07 08:56:12;;;;;;;3.52;1.12;;;16.60;91.30;;;;;;936357;148;27341;-78
2022/11/07 08:58:38;;;;;;;3.47;1.92;;;16.70;91.10;;;;;;941641;148;27370;-78
2022/11/07 09:01:05;;;;;;;4.33;1.35;;;16.70;90.80;;;;;;955391;149;27747;-78
2022/11/07 09:03:31;;;;;;;2.15;1.35;;;16.80;90.50;;;;;;938199;149;27375;-78
2022/11/07 09:05:58;;;;;;;2.42;1.20;;;16.90;90.30;;;;;;954881;146;27296;-78
2022/11/07 09:08:24;;;;;;;3.45;1.30;;;17.00;90.00;;;;;;944603;148;27322;-78
2022/11/07 09:10:51;;;;;;;2.25;1.25;;;17.00;89.20;;;;;;951719;147;27349;-79
2022/11/07 09:13:19;;;;;;;3.12;1.47;;;17.10;88.00;;;;;;951501;147;27392;-78
2022/11/07 09:15:44;;;;;;;2.37;1.37;;;17.20;86.90;;;;;;952317;147;27324;-79
2022/11/07 09:18:11;;;;;;;3.62;1.37;;;17.20;86.60;;;;;;950374;147;27362;-78
2022/11/07 09:20:37;;;;;;;3.50;1.40;;;17.30;87.40;;;;;;951583;147;27518;-78
2022/11/07 09:23:04;;;;;;;2.72;1.40;;;17.40;87.40;;;;;;951100;147;27376;-78
2022/11/07 09:25:31;;;;;;;3.08;1.70;;;17.50;86.40;;;;;;951399;147;27376;-79
2022/11/07 09:27:57;;;;;;;1.77;1.50;;;17.60;86.70;;;;;;953527;147;27350;-79
2022/11/07 09:30:24;;;;;;;3.33;1.45;;;17.70;85.70;;;;;;950081;147;27328;-79
2022/11/07 09:32:50;;;;;;;1.47;1.25;;;17.80;85.10;;;;;;951974;147;28770;-79
2022/11/07 09:35:17;;;;;;;2.30;1.47;;;17.90;84.20;;;;;;939316;148;27417;-79
2022/11/07 09:37:44;;;;;;;3.70;1.60;;;17.90;83.60;;;;;;938712;149;27393;-79
2022/11/07 09:40:10;;;;;;;6.35;1.82;;;18.00;83.40;;;;;;939363;151;27293;-79
2022/11/07 09:43:02;;;;;;;3.62;1.55;;;18.00;82.80;;;;;;933794;151;27421;-78
2022/11/07 09:45:28;;;;;;;2.77;1.30;;;18.00;82.40;;;;;;950364;149;27352;-77
2022/11/07 09:47:55;;;;;;;3.85;1.27;;;18.00;81.50;;;;;;953215;148;27336;-77
2022/11/07 09:50:24;;;;;;;3.55;1.57;;;18.00;82.00;;;;;;952618;149;27261;-77
2022/11/07 09:53:06;;;;;;;4.83;1.40;;;18.00;82.30;;;;;;951881;149;27313;-78
2022/11/07 09:55:32;;;;;;;2.60;1.25;;;18.00;82.80;;;;;;952487;149;27315;-77
2022/11/07 09:58:02;;;;;;;5.25;2.10;;;18.00;81.80;;;;;;954899;149;27325;-78
2022/11/07 10:00:31;;;;;;;4.97;1.77;;;18.00;82.00;;;;;;951962;149;27398;-78
2022/11/07 10:02:58;;;;;;;4.08;1.57;;;18.00;80.90;;;;;;953847;149;27326;-78
2022/11/07 10:05:52;;;;;;;2.60;1.25;;;18.00;80.60;;;;;;955052;149;27323;-78
2022/11/07 10:08:27;;;;;;;2.33;1.22;;;18.00;80.70;;;;;;956639;149;27376;-78
2022/11/07 10:11:02;;;;;;;2.98;1.17;;;18.00;80.90;;;;;;953814;149;27292;-78
2022/11/07 10:13:35;;;;;;;2.55;1.17;;;18.00;80.70;;;;;;954520;149;27883;-77
2022/11/07 10:16:04;;;;;;;2.85;1.40;;;18.00;81.00;;;;;;954634;149;27297;-78
2022/11/07 10:18:39;;;;;;;3.58;1.57;;;18.00;81.10;;;;;;952189;148;27278;-78
2022/11/07 10:21:08;;;;;;;5.87;2.45;;;18.00;81.20;;;;;;953278;149;27360;-78
2022/11/07 10:23:53;;;;;;;2.52;1.40;;;18.10;81.40;;;;;;950400;148;27390;-78
2022/11/07 10:26:20;;;;;;;2.40;1.35;;;18.10;81.30;;;;;;934484;152;27415;-78
2022/11/07 10:28:55;;;;;;;2.75;1.30;;;18.20;81.00;;;;;;953164;149;27248;-78
2022/11/07 10:31:22;;;;;;;3.30;1.52;;;18.20;80.80;;;;;;945812;149;27326;-78
2022/11/07 10:33:51;;;;;;;5.15;1.55;;;18.20;80.40;;;;;;954449;148;27393;-78
2022/11/07 10:36:27;;;;;;;3.72;1.57;;;18.20;79.80;;;;;;953589;145;27655;-78
2022/11/07 10:38:53;;;;;;;2.50;1.47;;;18.20;80.20;;;;;;954884;146;27326;-78
2022/11/07 10:41:26;;;;;;;3.22;1.40;;;18.30;80.50;;;;;;940629;148;27394;-78
2022/11/07 10:43:52;;;;;;;3.25;1.40;;;18.30;79.70;;;;;;950943;147;27368;-77
2022/11/07 10:46:21;;;;;;;3.37;1.60;;;18.30;80.10;;;;;;950229;147;27412;-78
2022/11/07 10:48:51;;;;;;;5.22;1.25;;;18.30;80.00;;;;;;952675;147;27324;-77
2022/11/07 10:51:17;;;;;;;3.50;1.20;;;18.40;80.10;;;;;;952792;147;27331;-77
2022/11/07 10:53:44;;;;;;;2.52;1.30;;;18.40;80.10;;;;;;952043;147;27348;-77
2022/11/07 10:56:10;;;;;;;2.37;1.50;;;18.40;80.10;;;;;;951361;147;27417;-78
2022/11/07 10:58:37;;;;;;;3.98;1.77;;;18.50;79.80;;;;;;951963;147;27400;-78
2022/11/07 11:01:04;;;;;;;2.60;1.40;;;18.50;78.80;;;;;;952818;147;27382;-78
2022/11/07 11:03:30;;;;;;;3.02;1.42;;;18.50;79.00;;;;;;936475;148;27348;-77
2022/11/07 11:05:57;;;;;;;3.12;1.55;;;18.50;78.40;;;;;;934834;148;27457;-77
2022/11/07 11:08:25;;;;;;;2.72;1.57;;;18.50;78.30;;;;;;948472;147;27534;-77
2022/11/07 11:10:50;;;;;;;2.98;1.07;;;18.50;77.80;;;;;;950838;147;27333;-77
2022/11/07 11:13:31;;;;;;;3.47;1.32;;;18.50;77.80;;;;;;950890;147;27390;-77
2022/11/07 11:15:58;;;;;;;2.37;1.22;;;18.40;76.90;;;;;;952760;147;27392;-77
2022/11/07 11:18:25;;;;;;;4.72;1.45;;;18.30;76.90;;;;;;950994;147;27340;-77
2022/11/07 11:20:59;;;;;;;3.40;1.50;;;18.20;76.70;;;;;;951397;147;27981;-77
2022/11/07 11:23:24;;;;;;;4.05;1.40;;;18.10;77.00;;;;;;950930;147;28426;-77
2022/11/07 11:25:51;;;;;;;2.27;1.55;;;18.00;77.30;;;;;;950158;147;27401;-77
2022/11/07 11:28:26;;;;;;;6.90;1.75;;;18.00;77.70;;;;;;952257;147;27289;-77
2022/11/07 11:31:01;;;;;;;2.00;1.40;;;17.90;77.90;;;;;;952073;147;27442;-77
2022/11/07 11:33:36;;;;;;;2.87;1.30;;;17.90;77.70;;;;;;952147;147;27352;-77
2022/11/07 11:36:03;;;;;;;3.25;1.87;;;17.80;78.20;;;;;;951110;147;27918;-77
2022/11/07 11:38:38;;;;;;;4.17;1.98;;;17.70;78.60;;;;;;953957;147;27330;-78
2022/11/07 11:41:26;;;;;;;3.37;1.50;;;17.80;78.70;;;;;;953804;147;27782;-78
2022/11/07 11:43:58;;;;;;;2.80;1.37;;;17.80;79.10;;;;;;950906;147;27353;-78
2022/11/07 11:46:30;;;;;;;3.58;1.50;;;17.80;79.10;;;;;;949364;147;27328;-78
2022/11/07 11:49:05;;;;;;;4.45;1.30;;;17.90;79.60;;;;;;951457;147;27342;-78
2022/11/07 11:51:32;;;;;;;4.72;1.57;;;17.90;79.80;;;;;;950328;147;27400;-77
2022/11/07 11:53:59;;;;;;;6.50;1.70;;;18.00;79.70;;;;;;950728;147;27314;-78
2022/11/07 11:56:25;;;;;;;5.22;1.98;;;18.00;79.40;;;;;;952321;147;27328;-78
2022/11/07 11:58:58;;;;;;;2.50;1.85;;;18.10;79.60;;;;;;950887;147;27415;-78
2022/11/07 12:01:42;;;;;;;5.15;1.47;;;18.10;79.60;;;;;;950877;147;27365;-78
2022/11/07 12:04:27;;;;;;;2.42;1.20;;;18.20;79.20;;;;;;950725;147;27369;-77
2022/11/07 12:06:54;;;;;;;2.75;1.77;;;18.20;79.10;;;;;;953674;147;27349;-78
2022/11/07 12:09:24;;;;;;;6.28;1.35;;;18.20;79.00;;;;;;950750;147;27347;-79
2022/11/07 12:12:05;;;;;;;2.67;1.60;;;18.30;78.90;;;;;;951365;147;27325;-78
2022/11/07 12:14:40;;;;;;;3.85;1.30;;;18.30;78.70;;;;;;951990;147;27914;-79
2022/11/07 12:17:10;;;;;;;4.17;1.55;;;18.30;78.70;;;;;;951196;147;27343;-78
2022/11/07 12:19:58;;;;;;;2.83;1.95;;;18.30;78.20;;;;;;950623;147;27372;-78
2022/11/07 12:22:39;;;;;;;4.78;2.10;;;18.40;78.10;;;;;;950807;147;27441;-78
2022/11/07 12:25:09;;;;;;;3.37;1.40;;;18.30;77.90;;;;;;951926;147;27676;-78
2022/11/07 12:27:47;;;;;;;5.12;1.75;;;18.40;78.20;;;;;;950247;147;27378;-78
2022/11/07 12:30:44;;;;;;;3.50;1.65;;;18.40;78.30;;;;;;952289;147;27340;-78
2022/11/07 12:33:16;;;;;;;2.60;1.27;;;18.40;77.90;;;;;;951372;147;27454;-78
2022/11/07 12:35:43;;;;;;;3.00;1.42;;;18.40;77.90;;;;;;951040;147;27958;-78
2022/11/07 12:38:37;;;;;;;3.33;1.40;;;18.40;78.10;;;;;;952571;147;27324;-78
2022/11/07 12:41:06;;;;;;;3.15;1.57;;;18.50;78.00;;;;;;952067;147;27364;-78
2022/11/07 12:43:39;;;;;;;2.37;1.30;;;18.50;78.20;;;;;;951923;147;27386;-78
2022/11/07 12:46:30;;;;;;;2.20;1.20;;;18.50;77.90;;;;;;952142;147;27332;-78
2022/11/07 12:49:08;;;;;;;3.15;1.60;;;18.50;77.70;;;;;;953261;147;27352;-78
2022/11/07 12:51:38;;;;;;;2.25;1.45;;;18.50;77.50;;;;;;950015;147;27314;-78
2022/11/07 12:54:29;;;;;;;3.10;1.40;;;18.50;77.60;;;;;;948519;147;27305;-79
2022/11/07 12:56:55;;;;;;;2.37;1.40;;;18.50;77.30;;;;;;950842;147;27342;-78
2022/11/07 12:59:28;;;;;;;2.35;1.50;;;18.50;77.20;;;;;;951954;147;27760;-78
2022/11/07 13:02:06;;;;;;;5.85;1.95;;;18.40;76.80;;;;;;951041;147;27345;-79
2022/11/07 13:04:39;;;;;;;2.72;1.40;;;18.40;77.00;;;;;;950066;147;27345;-78